sensor_id;sensor_type;location;lat;lon;timestamp;pressure;altitude;pressure_sealevel;temperature;humidity
36964;BME280;22878;48.616;35.326;2023-04-16T00:00:29;101862.30;;;6.36;100.00
36964;BME280;22878;48.616;35.326;2023-04-16T00:02:55;101864.17;;;6.40;100.00
36964;BME280;22878;48.616;35.326;2023-04-16T00:05:21;101873.50;;;6.44;100.00
36964;BME280;22878;48.616;35.326;2023-04-16T00:07:46;101879.73;;;6.47;100.00
36964;BME280;22878;48.616;35.326;2023-04-16T00:10:13;101874.70;;;6.48;100.00
36964;BME280;22878;48.616;35.326;2023-04-16T00:12:38;101883.36;;;6.52;100.00
36964;BME280;22878;48.616;35.326;2023-04-16T00:15:04;101878.17;;;6.53;100.00
36964;BME280;22878;48.616;35.326;2023-04-16T00:17:30;101874.27;;;6.53;100.00
36964;BME280;22878;48.616;35.326;2023-04-16T00:19:55;101880.73;;;6.51;100.00
36964;BME280;22878;48.616;35.326;2023-04-16T00:22:21;101884.59;;;6.48;100.00
36964;BME280;22878;48.616;35.326;2023-04-16T00:24:46;101886.89;;;6.45;100.00
36964;BME280;22878;48.616;35.326;2023-04-16T00:27:12;101887.02;;;6.38;100.00
36964;BME280;22878;48.616;35.326;2023-04-16T00:29:37;101885.26;;;6.30;100.00
36964;BME280;22878;48.616;35.326;2023-04-16T00:32:03;101880.96;;;6.25;100.00
36964;BME280;22878;48.616;35.326;2023-04-16T00:34:28;101883.81;;;6.19;100.00
36964;BME280;22878;48.616;35.326;2023-04-16T00:36:54;101882.38;;;6.12;100.00
36964;BME280;22878;48.616;35.326;2023-04-16T00:39:19;101879.79;;;6.06;100.00
36964;BME280;22878;48.616;35.326;2023-04-16T00:41:44;101886.84;;;6.03;100.00
36964;BME280;22878;48.616;35.326;2023-04-16T00:44:10;101888.78;;;6.01;100.00
36964;BME280;22878;48.616;35.326;2023-04-16T00:46:36;101890.34;;;5.99;100.00
36964;BME280;22878;48.616;35.326;2023-04-16T00:49:02;101895.64;;;5.98;100.00
36964;BME280;22878;48.616;35.326;2023-04-16T00:51:28;101893.48;;;5.96;100.00
36964;BME280;22878;48.616;35.326;2023-04-16T00:53:54;101892.05;;;5.92;100.00
36964;BME280;22878;48.616;35.326;2023-04-16T00:56:21;101893.79;;;5.90;100.00
36964;BME280;22878;48.616;35.326;2023-04-16T00:58:48;101891.09;;;5.86;100.00
36964;BME280;22878;48.616;35.326;2023-04-16T01:01:13;101893.68;;;5.80;100.00
36964;BME280;22878;48.616;35.326;2023-04-16T01:03:44;101894.13;;;5.73;100.00
36964;BME280;22878;48.616;35.326;2023-04-16T01:06:10;101890.79;;;5.66;100.00
36964;BME280;22878;48.616;35.326;2023-04-16T01:08:36;101890.91;;;5.59;100.00
36964;BME280;22878;48.616;35.326;2023-04-16T01:11:02;101891.58;;;5.56;100.00
36964;BME280;22878;48.616;35.326;2023-04-16T01:13:28;101894.64;;;5.51;100.00
36964;BME280;22878;48.616;35.326;2023-04-16T01:15:54;101894.31;;;5.46;100.00
36964;BME280;22878;48.616;35.326;2023-04-16T01:18:21;101893.00;;;5.41;100.00
36964;BME280;22878;48.616;35.326;2023-04-16T01:20:47;101892.63;;;5.36;100.00
36964;BME280;22878;48.616;35.326;2023-04-16T01:23:14;101894.55;;;5.32;100.00
36964;BME280;22878;48.616;35.326;2023-04-16T01:25:39;101898.46;;;5.28;100.00
36964;BME280;22878;48.616;35.326;2023-04-16T01:28:05;101894.73;;;5.23;100.00
36964;BME280;22878;48.616;35.326;2023-04-16T01:30:31;101894.47;;;5.21;100.00
36964;BME280;22878;48.616;35.326;2023-04-16T01:32:56;101890.50;;;5.15;100.00
36964;BME280;22878;48.616;35.326;2023-04-16T01:35:23;101886.16;;;5.08;100.00
36964;BME280;22878;48.616;35.326;2023-04-16T01:37:49;101882.55;;;5.03;100.00
36964;BME280;22878;48.616;35.326;2023-04-16T01:40:15;101881.69;;;4.96;100.00
36964;BME280;22878;48.616;35.326;2023-04-16T01:42:41;101875.62;;;4.92;100.00
36964;BME280;22878;48.616;35.326;2023-04-16T01:45:07;101876.21;;;4.89;100.00
36964;BME280;22878;48.616;35.326;2023-04-16T01:47:32;101872.08;;;4.86;100.00
36964;BME280;22878;48.616;35.326;2023-04-16T01:49:58;101867.19;;;4.83;100.00
36964;BME280;22878;48.616;35.326;2023-04-16T01:52:24;101868.27;;;4.81;100.00
36964;BME280;22878;48.616;35.326;2023-04-16T01:54:50;101868.79;;;4.79;100.00
36964;BME280;22878;48.616;35.326;2023-04-16T01:57:15;101867.59;;;4.78;100.00
36964;BME280;22878;48.616;35.326;2023-04-16T01:59:41;101865.59;;;4.76;100.00
36964;BME280;22878;48.616;35.326;2023-04-16T02:02:11;101870.23;;;4.74;100.00
36964;BME280;22878;48.616;35.326;2023-04-16T02:04:38;101867.27;;;4.72;100.00
36964;BME280;22878;48.616;35.326;2023-04-16T02:07:05;101865.99;;;4.71;100.00
36964;BME280;22878;48.616;35.326;2023-04-16T02:09:34;101875.16;;;4.72;100.00
36964;BME280;22878;48.616;35.326;2023-04-16T02:12:00;101873.34;;;4.70;100.00
36964;BME280;22878;48.616;35.326;2023-04-16T02:14:27;101875.17;;;4.70;100.00
36964;BME280;22878;48.616;35.326;2023-04-16T02:16:53;101871.92;;;4.69;100.00
36964;BME280;22878;48.616;35.326;2023-04-16T02:19:18;101871.31;;;4.68;100.00
36964;BME280;22878;48.616;35.326;2023-04-16T02:21:44;101871.08;;;4.66;100.00
36964;BME280;22878;48.616;35.326;2023-04-16T02:24:10;101869.83;;;4.64;100.00
36964;BME280;22878;48.616;35.326;2023-04-16T02:26:35;101876.77;;;4.63;100.00
36964;BME280;22878;48.616;35.326;2023-04-16T02:29:01;101873.45;;;4.61;100.00
36964;BME280;22878;48.616;35.326;2023-04-16T02:31:26;101875.98;;;4.59;100.00
36964;BME280;22878;48.616;35.326;2023-04-16T02:33:53;101875.52;;;4.57;100.00
36964;BME280;22878;48.616;35.326;2023-04-16T02:36:19;101882.09;;;4.56;100.00
36964;BME280;22878;48.616;35.326;2023-04-16T02:38:44;101884.11;;;4.55;100.00
36964;BME280;22878;48.616;35.326;2023-04-16T02:41:10;101884.07;;;4.53;100.00
36964;BME280;22878;48.616;35.326;2023-04-16T02:43:35;101884.05;;;4.51;100.00
36964;BME280;22878;48.616;35.326;2023-04-16T02:46:01;101889.64;;;4.51;100.00
36964;BME280;22878;48.616;35.326;2023-04-16T02:48:26;101889.31;;;4.50;100.00
36964;BME280;22878;48.616;35.326;2023-04-16T02:50:52;101889.00;;;4.50;100.00
36964;BME280;22878;48.616;35.326;2023-04-16T02:53:17;101887.98;;;4.50;100.00
36964;BME280;22878;48.616;35.326;2023-04-16T02:55:53;101879.13;;;4.51;100.00
36964;BME280;22878;48.616;35.326;2023-04-16T02:58:23;101882.53;;;4.52;100.00
36964;BME280;22878;48.616;35.326;2023-04-16T03:00:50;101881.51;;;4.55;100.00
36964;BME280;22878;48.616;35.326;2023-04-16T03:03:16;101880.50;;;4.57;100.00
36964;BME280;22878;48.616;35.326;2023-04-16T03:05:42;101879.78;;;4.62;100.00
36964;BME280;22878;48.616;35.326;2023-04-16T03:08:08;101878.55;;;4.66;100.00
36964;BME280;22878;48.616;35.326;2023-04-16T03:10:33;101873.34;;;4.71;100.00
36964;BME280;22878;48.616;35.326;2023-04-16T03:13:00;101875.51;;;4.77;100.00
36964;BME280;22878;48.616;35.326;2023-04-16T03:15:26;101871.75;;;4.84;100.00
36964;BME280;22878;48.616;35.326;2023-04-16T03:17:52;101878.90;;;4.92;100.00
36964;BME280;22878;48.616;35.326;2023-04-16T03:20:18;101875.73;;;5.00;100.00
36964;BME280;22878;48.616;35.326;2023-04-16T03:22:47;101879.48;;;5.13;100.00
36964;BME280;22878;48.616;35.326;2023-04-16T03:25:13;101880.52;;;5.24;100.00
36964;BME280;22878;48.616;35.326;2023-04-16T03:27:38;101882.27;;;5.36;100.00
36964;BME280;22878;48.616;35.326;2023-04-16T03:30:14;101884.09;;;5.50;100.00
36964;BME280;22878;48.616;35.326;2023-04-16T03:32:40;101891.37;;;5.66;100.00
36964;BME280;22878;48.616;35.326;2023-04-16T03:35:07;101893.55;;;5.79;100.00
36964;BME280;22878;48.616;35.326;2023-04-16T03:37:33;101900.55;;;5.90;100.00
36964;BME280;22878;48.616;35.326;2023-04-16T03:39:59;101905.64;;;6.04;100.00
36964;BME280;22878;48.616;35.326;2023-04-16T03:42:25;101913.38;;;6.18;100.00
36964;BME280;22878;48.616;35.326;2023-04-16T03:44:51;101914.73;;;6.30;100.00
36964;BME280;22878;48.616;35.326;2023-04-16T03:47:18;101916.41;;;6.42;100.00
36964;BME280;22878;48.616;35.326;2023-04-16T03:49:44;101919.59;;;6.56;100.00
36964;BME280;22878;48.616;35.326;2023-04-16T03:52:10;101922.90;;;6.81;100.00
36964;BME280;22878;48.616;35.326;2023-04-16T03:54:35;101929.23;;;7.22;100.00
36964;BME280;22878;48.616;35.326;2023-04-16T03:57:01;101933.94;;;7.66;100.00
36964;BME280;22878;48.616;35.326;2023-04-16T03:59:26;101928.69;;;8.16;100.00
36964;BME280;22878;48.616;35.326;2023-04-16T04:01:52;101926.81;;;8.62;100.00
36964;BME280;22878;48.616;35.326;2023-04-16T04:04:17;101928.39;;;9.15;100.00
36964;BME280;22878;48.616;35.326;2023-04-16T04:06:44;101929.70;;;9.63;100.00
36964;BME280;22878;48.616;35.326;2023-04-16T04:09:10;101931.12;;;9.86;100.00
36964;BME280;22878;48.616;35.326;2023-04-16T04:11:35;101931.80;;;10.33;100.00
36964;BME280;22878;48.616;35.326;2023-04-16T04:14:01;101930.88;;;10.63;100.00
36964;BME280;22878;48.616;35.326;2023-04-16T04:16:26;101934.44;;;10.59;100.00
36964;BME280;22878;48.616;35.326;2023-04-16T04:18:52;101931.48;;;10.83;100.00
36964;BME280;22878;48.616;35.326;2023-04-16T04:21:17;101937.48;;;11.04;100.00
36964;BME280;22878;48.616;35.326;2023-04-16T04:23:43;101939.91;;;10.85;100.00
36964;BME280;22878;48.616;35.326;2023-04-16T04:26:08;101941.48;;;10.42;100.00
36964;BME280;22878;48.616;35.326;2023-04-16T04:28:34;101944.98;;;10.06;100.00
36964;BME280;22878;48.616;35.326;2023-04-16T04:31:00;101947.95;;;9.85;100.00
36964;BME280;22878;48.616;35.326;2023-04-16T04:33:26;101942.73;;;9.62;100.00
36964;BME280;22878;48.616;35.326;2023-04-16T04:35:53;101952.14;;;9.54;100.00
36964;BME280;22878;48.616;35.326;2023-04-16T04:38:19;101951.86;;;9.53;100.00
36964;BME280;22878;48.616;35.326;2023-04-16T04:40:47;101959.25;;;9.75;100.00
36964;BME280;22878;48.616;35.326;2023-04-16T04:43:13;101958.81;;;10.14;100.00
36964;BME280;22878;48.616;35.326;2023-04-16T04:45:39;101953.67;;;10.49;100.00
36964;BME280;22878;48.616;35.326;2023-04-16T04:48:04;101952.89;;;10.95;100.00
36964;BME280;22878;48.616;35.326;2023-04-16T04:50:30;101954.77;;;11.17;100.00
36964;BME280;22878;48.616;35.326;2023-04-16T04:52:55;101957.37;;;11.61;100.00
36964;BME280;22878;48.616;35.326;2023-04-16T04:55:21;101957.55;;;12.03;100.00
36964;BME280;22878;48.616;35.326;2023-04-16T04:57:48;101956.75;;;12.34;99.90
36964;BME280;22878;48.616;35.326;2023-04-16T05:00:13;101949.70;;;12.64;96.91
36964;BME280;22878;48.616;35.326;2023-04-16T05:02:39;101950.59;;;12.39;92.01
36964;BME280;22878;48.616;35.326;2023-04-16T05:05:04;101949.86;;;12.25;94.26
36964;BME280;22878;48.616;35.326;2023-04-16T05:07:30;101949.58;;;12.48;90.72
36964;BME280;22878;48.616;35.326;2023-04-16T05:09:56;101948.05;;;13.04;87.75
36964;BME280;22878;48.616;35.326;2023-04-16T05:12:22;101946.03;;;13.26;85.47
36964;BME280;22878;48.616;35.326;2023-04-16T05:14:47;101952.13;;;13.69;81.09
36964;BME280;22878;48.616;35.326;2023-04-16T05:17:13;101952.03;;;13.80;75.55
36964;BME280;22878;48.616;35.326;2023-04-16T05:19:38;101951.45;;;13.50;73.88
36964;BME280;22878;48.616;35.326;2023-04-16T05:22:03;101952.76;;;13.02;74.35
36964;BME280;22878;48.616;35.326;2023-04-16T05:24:30;101952.19;;;12.75;76.38
36964;BME280;22878;48.616;35.326;2023-04-16T05:26:55;101959.78;;;12.54;76.18
36964;BME280;22878;48.616;35.326;2023-04-16T05:29:21;101959.74;;;12.15;78.12
36964;BME280;22878;48.616;35.326;2023-04-16T05:31:47;101952.23;;;12.42;79.25
36964;BME280;22878;48.616;35.326;2023-04-16T05:34:12;101949.98;;;12.51;80.05
36964;BME280;22878;48.616;35.326;2023-04-16T05:36:38;101960.70;;;12.41;78.14
36964;BME280;22878;48.616;35.326;2023-04-16T05:39:03;101956.99;;;12.43;77.79
36964;BME280;22878;48.616;35.326;2023-04-16T05:41:29;101957.91;;;12.42;77.74
36964;BME280;22878;48.616;35.326;2023-04-16T05:43:54;101949.58;;;12.55;77.60
36964;BME280;22878;48.616;35.326;2023-04-16T05:46:20;101951.08;;;12.80;77.73
36964;BME280;22878;48.616;35.326;2023-04-16T05:48:45;101950.83;;;13.25;75.63
36964;BME280;22878;48.616;35.326;2023-04-16T05:51:11;101949.08;;;13.89;74.50
36964;BME280;22878;48.616;35.326;2023-04-16T05:53:36;101946.44;;;14.46;73.11
36964;BME280;22878;48.616;35.326;2023-04-16T05:56:02;101952.21;;;14.61;67.98
36964;BME280;22878;48.616;35.326;2023-04-16T05:58:27;101951.32;;;14.43;66.26
36964;BME280;22878;48.616;35.326;2023-04-16T06:00:53;101951.25;;;15.01;66.08
36964;BME280;22878;48.616;35.326;2023-04-16T06:03:19;101950.57;;;15.58;63.35
36964;BME280;22878;48.616;35.326;2023-04-16T06:05:44;101948.27;;;15.32;61.05
36964;BME280;22878;48.616;35.326;2023-04-16T06:08:10;101947.34;;;15.01;62.84
36964;BME280;22878;48.616;35.326;2023-04-16T06:10:35;101949.20;;;15.19;61.77
36964;BME280;22878;48.616;35.326;2023-04-16T06:13:01;101945.11;;;14.75;60.89
36964;BME280;22878;48.616;35.326;2023-04-16T06:15:26;101946.17;;;14.50;62.82
36964;BME280;22878;48.616;35.326;2023-04-16T06:17:53;101947.85;;;15.03;63.03
36964;BME280;22878;48.616;35.326;2023-04-16T06:20:18;101944.09;;;15.51;60.04
36964;BME280;22878;48.616;35.326;2023-04-16T06:22:44;101948.81;;;15.31;59.11
36964;BME280;22878;48.616;35.326;2023-04-16T06:25:09;101947.53;;;15.09;60.34
36964;BME280;22878;48.616;35.326;2023-04-16T06:27:35;101952.13;;;15.30;60.32
36964;BME280;22878;48.616;35.326;2023-04-16T06:30:01;101956.27;;;15.69;59.07
36964;BME280;22878;48.616;35.326;2023-04-16T06:32:26;101964.41;;;15.96;58.71
36964;BME280;22878;48.616;35.326;2023-04-16T06:34:52;101975.80;;;16.20;57.96
36964;BME280;22878;48.616;35.326;2023-04-16T06:37:18;101970.38;;;16.31;56.66
36964;BME280;22878;48.616;35.326;2023-04-16T06:39:43;101966.72;;;16.55;57.32
36964;BME280;22878;48.616;35.326;2023-04-16T06:42:09;101960.82;;;17.37;56.98
36964;BME280;22878;48.616;35.326;2023-04-16T06:44:35;101964.83;;;18.09;53.59
36964;BME280;22878;48.616;35.326;2023-04-16T06:47:00;101958.31;;;18.14;52.04
36964;BME280;22878;48.616;35.326;2023-04-16T06:49:26;101965.29;;;18.52;51.75
36964;BME280;22878;48.616;35.326;2023-04-16T06:51:51;101962.79;;;19.07;50.17
36964;BME280;22878;48.616;35.326;2023-04-16T06:54:17;101963.11;;;19.45;49.72
36964;BME280;22878;48.616;35.326;2023-04-16T06:56:44;101957.08;;;20.01;48.29
36964;BME280;22878;48.616;35.326;2023-04-16T06:59:09;101956.42;;;20.35;47.74
36964;BME280;22878;48.616;35.326;2023-04-16T07:01:35;101962.52;;;20.71;46.57
36964;BME280;22878;48.616;35.326;2023-04-16T07:04:19;101956.33;;;20.56;44.92
36964;BME280;22878;48.616;35.326;2023-04-16T07:06:45;101962.36;;;20.22;45.22
36964;BME280;22878;48.616;35.326;2023-04-16T07:09:10;101961.71;;;20.12;45.46
36964;BME280;22878;48.616;35.326;2023-04-16T07:11:36;101958.35;;;20.33;45.22
36964;BME280;22878;48.616;35.326;2023-04-16T07:14:02;101953.06;;;20.37;44.86
36964;BME280;22878;48.616;35.326;2023-04-16T07:16:28;101960.95;;;20.31;44.53
36964;BME280;22878;48.616;35.326;2023-04-16T07:18:53;101955.75;;;20.07;44.66
36964;BME280;22878;48.616;35.326;2023-04-16T07:21:19;101956.73;;;20.18;44.73
36964;BME280;22878;48.616;35.326;2023-04-16T07:23:45;101961.41;;;20.10;44.47
36964;BME280;22878;48.616;35.326;2023-04-16T07:26:10;101956.35;;;20.59;44.98
36964;BME280;22878;48.616;35.326;2023-04-16T07:28:36;101950.56;;;21.36;46.18
36964;BME280;22878;48.616;35.326;2023-04-16T07:31:01;101947.73;;;22.68;45.23
36964;BME280;22878;48.616;35.326;2023-04-16T07:33:27;101952.20;;;23.49;41.38
36964;BME280;22878;48.616;35.326;2023-04-16T07:35:53;101957.20;;;22.63;40.43
36964;BME280;22878;48.616;35.326;2023-04-16T07:38:18;101948.06;;;22.39;41.33
36964;BME280;22878;48.616;35.326;2023-04-16T07:40:43;101947.86;;;22.78;41.73
36964;BME280;22878;48.616;35.326;2023-04-16T07:43:09;101946.17;;;23.30;40.45
36964;BME280;22878;48.616;35.326;2023-04-16T07:45:35;101947.30;;;22.97;39.73
36964;BME280;22878;48.616;35.326;2023-04-16T07:48:00;101946.71;;;22.32;40.18
36964;BME280;22878;48.616;35.326;2023-04-16T07:50:26;101942.98;;;21.45;40.80
36964;BME280;22878;48.616;35.326;2023-04-16T07:52:51;101952.00;;;21.12;41.53
36964;BME280;22878;48.616;35.326;2023-04-16T07:55:17;101947.08;;;20.69;42.21
36964;BME280;22878;48.616;35.326;2023-04-16T07:57:42;101947.84;;;20.61;43.01
36964;BME280;22878;48.616;35.326;2023-04-16T08:00:09;101952.66;;;20.85;42.08
36964;BME280;22878;48.616;35.326;2023-04-16T08:02:35;101944.52;;;20.69;42.87
36964;BME280;22878;48.616;35.326;2023-04-16T08:05:01;101950.33;;;20.87;42.48
36964;BME280;22878;48.616;35.326;2023-04-16T08:07:26;101943.88;;;20.95;42.40
36964;BME280;22878;48.616;35.326;2023-04-16T08:09:52;101944.44;;;21.00;42.41
36964;BME280;22878;48.616;35.326;2023-04-16T08:12:19;101943.52;;;21.17;42.31
36964;BME280;22878;48.616;35.326;2023-04-16T08:14:45;101947.95;;;21.53;41.60
36964;BME280;22878;48.616;35.326;2023-04-16T08:17:12;101934.58;;;21.32;40.93
36964;BME280;22878;48.616;35.326;2023-04-16T08:19:37;101940.31;;;21.12;41.47
36964;BME280;22878;48.616;35.326;2023-04-16T08:22:03;101939.39;;;21.15;42.25
36964;BME280;22878;48.616;35.326;2023-04-16T08:24:28;101937.83;;;21.35;41.42
36964;BME280;22878;48.616;35.326;2023-04-16T08:26:54;101943.33;;;21.23;41.51
36964;BME280;22878;48.616;35.326;2023-04-16T08:29:20;101938.37;;;21.11;42.07
36964;BME280;22878;48.616;35.326;2023-04-16T08:31:46;101933.91;;;21.32;42.57
36964;BME280;22878;48.616;35.326;2023-04-16T08:34:12;101934.54;;;21.10;41.85
36964;BME280;22878;48.616;35.326;2023-04-16T08:36:39;101932.16;;;20.97;42.05
36964;BME280;22878;48.616;35.326;2023-04-16T08:39:04;101928.26;;;20.83;41.41
36964;BME280;22878;48.616;35.326;2023-04-16T08:41:31;101923.79;;;20.43;42.81
36964;BME280;22878;48.616;35.326;2023-04-16T08:43:59;101917.98;;;20.57;42.74
36964;BME280;22878;48.616;35.326;2023-04-16T08:46:30;101916.45;;;20.76;42.68
36964;BME280;22878;48.616;35.326;2023-04-16T08:48:58;101909.46;;;20.86;42.69
36964;BME280;22878;48.616;35.326;2023-04-16T08:51:24;101909.02;;;21.21;42.77
36964;BME280;22878;48.616;35.326;2023-04-16T08:53:52;101902.25;;;21.20;42.06
36964;BME280;22878;48.616;35.326;2023-04-16T08:56:22;101912.27;;;21.07;42.62
36964;BME280;22878;48.616;35.326;2023-04-16T08:58:50;101909.41;;;20.87;42.34
36964;BME280;22878;48.616;35.326;2023-04-16T09:01:17;101912.09;;;20.79;42.39
36964;BME280;22878;48.616;35.326;2023-04-16T09:03:47;101906.16;;;20.51;42.49
36964;BME280;22878;48.616;35.326;2023-04-16T09:06:13;101914.73;;;19.98;42.54
36964;BME280;22878;48.616;35.326;2023-04-16T09:08:42;101910.46;;;19.54;43.40
36964;BME280;22878;48.616;35.326;2023-04-16T09:11:08;101908.97;;;19.32;43.66
36964;BME280;22878;48.616;35.326;2023-04-16T09:13:36;101907.77;;;19.36;44.83
36964;BME280;22878;48.616;35.326;2023-04-16T09:16:02;101900.94;;;19.69;44.21
36964;BME280;22878;48.616;35.326;2023-04-16T09:18:29;101900.64;;;19.72;43.99
36964;BME280;22878;48.616;35.326;2023-04-16T09:20:55;101904.33;;;19.85;43.95
36964;BME280;22878;48.616;35.326;2023-04-16T09:23:21;101898.64;;;19.90;43.83
36964;BME280;22878;48.616;35.326;2023-04-16T09:25:47;101905.23;;;19.78;43.75
36964;BME280;22878;48.616;35.326;2023-04-16T09:28:12;101898.00;;;19.67;43.73
36964;BME280;22878;48.616;35.326;2023-04-16T09:31:08;101901.63;;;19.51;44.18
36964;BME280;22878;48.616;35.326;2023-04-16T09:33:34;101900.52;;;19.43;44.69
36964;BME280;22878;48.616;35.326;2023-04-16T09:36:00;101894.66;;;19.24;44.30
36964;BME280;22878;48.616;35.326;2023-04-16T09:38:51;101896.95;;;19.11;44.65
36964;BME280;22878;48.616;35.326;2023-04-16T09:41:17;101898.04;;;18.88;44.71
36964;BME280;22878;48.616;35.326;2023-04-16T09:43:55;101899.77;;;18.51;45.74
36964;BME280;22878;48.616;35.326;2023-04-16T09:46:43;101901.71;;;18.21;45.38
36964;BME280;22878;48.616;35.326;2023-04-16T09:49:09;101900.41;;;18.05;46.98
36964;BME280;22878;48.616;35.326;2023-04-16T09:51:36;101905.12;;;18.14;46.69
36964;BME280;22878;48.616;35.326;2023-04-16T09:54:05;101907.31;;;17.92;46.61
36964;BME280;22878;48.616;35.326;2023-04-16T09:56:31;101901.60;;;17.72;47.11
36964;BME280;22878;48.616;35.326;2023-04-16T09:58:58;101904.35;;;17.59;47.56
36964;BME280;22878;48.616;35.326;2023-04-16T10:01:24;101906.55;;;17.50;47.23
36964;BME280;22878;48.616;35.326;2023-04-16T10:03:52;101904.80;;;17.19;47.69
36964;BME280;22878;48.616;35.326;2023-04-16T10:06:20;101909.50;;;17.16;48.54
36964;BME280;22878;48.616;35.326;2023-04-16T10:08:51;101902.95;;;17.12;49.02
36964;BME280;22878;48.616;35.326;2023-04-16T10:11:19;101914.70;;;17.02;48.91
36964;BME280;22878;48.616;35.326;2023-04-16T10:13:45;101903.40;;;16.81;49.10
36964;BME280;22878;48.616;35.326;2023-04-16T10:16:11;101899.05;;;16.83;49.88
36964;BME280;22878;48.616;35.326;2023-04-16T10:18:38;101901.48;;;16.75;50.13
36964;BME280;22878;48.616;35.326;2023-04-16T10:21:05;101908.05;;;16.57;50.21
36964;BME280;22878;48.616;35.326;2023-04-16T10:23:31;101917.05;;;16.45;50.31
36964;BME280;22878;48.616;35.326;2023-04-16T10:25:58;101912.05;;;16.32;51.35
36964;BME280;22878;48.616;35.326;2023-04-16T10:28:24;101912.70;;;16.47;51.16
36964;BME280;22878;48.616;35.326;2023-04-16T10:30:51;101907.64;;;16.51;51.10
36964;BME280;22878;48.616;35.326;2023-04-16T10:33:28;101908.28;;;16.62;51.89
36964;BME280;22878;48.616;35.326;2023-04-16T10:38:38;101905.01;;;16.57;51.12
36964;BME280;22878;48.616;35.326;2023-04-16T10:41:05;101903.27;;;16.56;51.13
36964;BME280;22878;48.616;35.326;2023-04-16T10:43:33;101901.59;;;16.63;51.79
36964;BME280;22878;48.616;35.326;2023-04-16T10:48:42;101902.42;;;16.50;52.23
36964;BME280;22878;48.616;35.326;2023-04-16T10:51:26;101903.64;;;16.58;51.23
36964;BME280;22878;48.616;35.326;2023-04-16T10:53:56;101897.52;;;16.68;51.55
36964;BME280;22878;48.616;35.326;2023-04-16T10:56:26;101890.54;;;16.79;51.51
36964;BME280;22878;48.616;35.326;2023-04-16T10:58:53;101896.02;;;16.92;52.07
36964;BME280;22878;48.616;35.326;2023-04-16T11:01:35;101885.52;;;16.97;51.85
36964;BME280;22878;48.616;35.326;2023-04-16T11:04:25;101893.30;;;17.01;52.02
36964;BME280;22878;48.616;35.326;2023-04-16T11:12:16;101885.67;;;16.76;51.65
36964;BME280;22878;48.616;35.326;2023-04-16T11:14:46;101877.13;;;16.75;51.81
36964;BME280;22878;48.616;35.326;2023-04-16T11:17:12;101868.85;;;16.75;52.12
36964;BME280;22878;48.616;35.326;2023-04-16T11:19:38;101867.30;;;16.84;51.84
36964;BME280;22878;48.616;35.326;2023-04-16T11:22:04;101877.58;;;16.76;51.43
36964;BME280;22878;48.616;35.326;2023-04-16T11:24:30;101863.98;;;16.67;52.12
36964;BME280;22878;48.616;35.326;2023-04-16T11:26:56;101861.98;;;16.89;52.06
36964;BME280;22878;48.616;35.326;2023-04-16T11:29:21;101862.58;;;16.99;52.02
36964;BME280;22878;48.616;35.326;2023-04-16T11:31:53;101857.67;;;17.06;51.52
36964;BME280;22878;48.616;35.326;2023-04-16T11:34:19;101855.55;;;17.04;50.66
36964;BME280;22878;48.616;35.326;2023-04-16T11:36:46;101852.72;;;17.10;50.22
36964;BME280;22878;48.616;35.326;2023-04-16T11:39:12;101854.73;;;17.17;50.44
36964;BME280;22878;48.616;35.326;2023-04-16T11:41:44;101849.02;;;17.11;49.76
36964;BME280;22878;48.616;35.326;2023-04-16T11:44:21;101847.27;;;17.01;50.48
36964;BME280;22878;48.616;35.326;2023-04-16T11:46:48;101850.05;;;16.87;50.88
36964;BME280;22878;48.616;35.326;2023-04-16T11:49:14;101841.23;;;16.71;50.77
36964;BME280;22878;48.616;35.326;2023-04-16T11:51:43;101834.95;;;16.63;50.01
36964;BME280;22878;48.616;35.326;2023-04-16T11:54:17;101832.67;;;16.70;49.24
36964;BME280;22878;48.616;35.326;2023-04-16T11:56:45;101843.63;;;16.89;50.16
36964;BME280;22878;48.616;35.326;2023-04-16T11:59:15;101842.15;;;16.96;49.84
36964;BME280;22878;48.616;35.326;2023-04-16T12:01:46;101836.38;;;16.95;49.48
36964;BME280;22878;48.616;35.326;2023-04-16T12:04:13;101823.20;;;16.96;49.76
36964;BME280;22878;48.616;35.326;2023-04-16T12:06:40;101830.48;;;17.19;49.89
36964;BME280;22878;48.616;35.326;2023-04-16T12:09:24;101828.70;;;17.11;48.77
36964;BME280;22878;48.616;35.326;2023-04-16T12:11:51;101827.45;;;17.13;49.16
36964;BME280;22878;48.616;35.326;2023-04-16T12:14:17;101819.27;;;17.11;49.18
36964;BME280;22878;48.616;35.326;2023-04-16T12:16:43;101823.58;;;17.15;49.73
36964;BME280;22878;48.616;35.326;2023-04-16T12:19:10;101824.29;;;17.10;48.91
36964;BME280;22878;48.616;35.326;2023-04-16T12:21:44;101825.33;;;17.03;48.52
36964;BME280;22878;48.616;35.326;2023-04-16T12:24:12;101818.96;;;16.94;49.04
36964;BME280;22878;48.616;35.326;2023-04-16T12:26:51;101818.95;;;16.87;49.33
36964;BME280;22878;48.616;35.326;2023-04-16T12:29:23;101817.36;;;16.92;49.94
36964;BME280;22878;48.616;35.326;2023-04-16T12:31:50;101815.98;;;17.24;50.69
36964;BME280;22878;48.616;35.326;2023-04-16T12:34:18;101810.30;;;17.33;48.71
36964;BME280;22878;48.616;35.326;2023-04-16T12:36:44;101808.20;;;17.23;48.60
36964;BME280;22878;48.616;35.326;2023-04-16T12:39:11;101807.18;;;17.20;48.86
36964;BME280;22878;48.616;35.326;2023-04-16T12:41:39;101811.38;;;17.12;48.41
36964;BME280;22878;48.616;35.326;2023-04-16T12:44:10;101809.42;;;17.10;48.05
36964;BME280;22878;48.616;35.326;2023-04-16T12:46:38;101809.19;;;17.06;47.85
36964;BME280;22878;48.616;35.326;2023-04-16T12:49:03;101809.04;;;17.08;48.23